createdAt,value
2022-10-22T00:01:02.326Z,15.25
2022-10-22T00:03:34.638Z,14.57
2022-10-22T00:06:07.400Z,13.45
2022-10-22T00:08:39.797Z,15.00
2022-10-22T00:11:14.280Z,11.93
2022-10-22T00:16:24.186Z,14.18
2022-10-22T00:18:56.532Z,13.07
2022-10-22T00:21:30.134Z,10.30
2022-10-22T00:24:02.463Z,12.60
2022-10-22T00:26:35.456Z,11.05
2022-10-22T00:29:07.756Z,15.38
2022-10-22T00:31:40.100Z,11.38
2022-10-22T00:34:12.425Z,12.02
2022-10-22T00:36:44.799Z,15.50
2022-10-22T00:39:20.514Z,10.25
2022-10-22T00:41:56.270Z,10.52
2022-10-22T00:45:20.655Z,11.80
2022-10-22T00:47:57.408Z,9.13
2022-10-22T00:50:32.686Z,13.15
2022-10-22T00:53:08.539Z,9.95
2022-10-22T00:55:43.647Z,10.75
2022-10-22T00:58:20.491Z,10.77
2022-10-22T01:00:53.373Z,7.85
2022-10-22T01:03:25.837Z,7.82
2022-10-22T01:06:00.619Z,10.68
2022-10-22T01:08:41.458Z,7.28
2022-10-22T01:11:21.811Z,6.78
2022-10-22T01:14:04.382Z,9.98
2022-10-22T01:16:46.083Z,9.82
2022-10-22T01:19:35.872Z,9.25
2022-10-22T01:22:17.518Z,7.32
2022-10-22T01:24:57.363Z,8.02
2022-10-22T01:30:07.627Z,10.60
2022-10-22T01:32:45.064Z,6.93
2022-10-22T01:35:22.426Z,10.60
2022-10-22T01:37:58.216Z,13.68
2022-10-22T01:40:32.226Z,11.88
2022-10-22T01:43:06.571Z,14.70
2022-10-22T01:45:44.230Z,9.30
2022-10-22T01:48:30.237Z,11.35
2022-10-22T01:51:20.358Z,9.60
2022-10-22T01:53:58.482Z,8.85
2022-10-22T01:56:47.694Z,7.72
2022-10-22T01:59:30.602Z,11.00
2022-10-22T02:02:10.379Z,7.78
2022-10-22T02:07:20.054Z,7.30
2022-10-22T02:09:54.473Z,11.27
2022-10-22T02:12:29.216Z,10.40
2022-10-22T02:15:03.466Z,10.43
2022-10-22T02:17:38.298Z,13.88
2022-10-22T02:20:16.107Z,10.93
2022-10-22T02:22:48.515Z,15.40
2022-10-22T02:25:22.292Z,9.80
2022-10-22T02:28:02.055Z,11.02
2022-10-22T02:33:13.962Z,10.82
2022-10-22T02:35:48.469Z,9.80
2022-10-22T02:38:23.364Z,14.95
2022-10-22T02:40:55.879Z,8.05
2022-10-22T02:43:28.838Z,10.10
2022-10-22T02:46:01.189Z,7.07
2022-10-22T02:48:34.194Z,9.82
2022-10-22T02:51:06.643Z,9.80
2022-10-22T02:53:39.027Z,11.07
2022-10-22T02:56:11.923Z,13.52
2022-10-22T02:58:44.224Z,11.32
2022-10-22T03:01:16.652Z,7.82
2022-10-22T03:03:49.729Z,10.45
2022-10-22T03:06:22.143Z,9.68
2022-10-22T03:08:54.475Z,9.70
2022-10-22T03:11:27.136Z,15.23
2022-10-22T03:13:59.475Z,13.50
2022-10-22T03:16:31.726Z,13.98
2022-10-22T03:19:04.748Z,16.70
2022-10-22T03:21:41.974Z,10.82
2022-10-22T03:24:17.593Z,12.63
2022-10-22T03:26:51.383Z,16.90
2022-10-22T03:29:25.975Z,14.43
2022-10-22T03:31:58.310Z,15.93
2022-10-22T03:34:31.783Z,22.10
2022-10-22T03:37:04.333Z,21.30
2022-10-22T03:39:37.426Z,21.95
2022-10-22T03:42:09.982Z,20.98
2022-10-22T03:44:42.316Z,21.52
2022-10-22T03:47:14.604Z,19.40
2022-10-22T03:49:47.563Z,16.67
2022-10-22T03:52:19.899Z,20.00
2022-10-22T03:54:52.251Z,19.63
2022-10-22T03:57:24.786Z,20.85
2022-10-22T03:59:57.080Z,18.27
2022-10-22T04:02:29.342Z,29.27
2022-10-22T04:05:02.419Z,20.10
2022-10-22T04:07:34.733Z,21.92
2022-10-22T04:10:07.816Z,19.38
2022-10-22T04:12:40.180Z,18.23
2022-10-22T04:15:12.415Z,13.15
2022-10-22T04:17:44.742Z,12.82
2022-10-22T04:20:17.946Z,14.98
2022-10-22T04:22:50.219Z,12.82
2022-10-22T04:25:22.470Z,16.55
2022-10-22T04:27:54.849Z,14.38
2022-10-22T04:30:27.491Z,10.35
2022-10-22T04:32:59.782Z,10.40
2022-10-22T04:35:32.714Z,16.40
2022-10-22T04:38:05.037Z,25.00
2022-10-22T04:40:37.389Z,18.60
2022-10-22T04:43:09.722Z,18.35
2022-10-22T04:45:41.996Z,18.45
2022-10-22T04:48:14.307Z,19.90
2022-10-22T04:50:47.230Z,13.57
2022-10-22T04:53:19.493Z,16.60
2022-10-22T04:55:51.758Z,15.18
2022-10-22T04:58:24.155Z,19.98
2022-10-22T05:00:56.431Z,17.95
2022-10-22T05:03:28.741Z,22.75
2022-10-22T05:06:01.864Z,20.95
2022-10-22T05:08:34.379Z,30.05
2022-10-22T05:11:13.966Z,28.58
2022-10-22T05:13:46.694Z,24.40
2022-10-22T05:16:18.998Z,28.00
2022-10-22T05:18:51.344Z,24.00
2022-10-22T05:21:24.356Z,26.83
2022-10-22T05:23:59.138Z,21.92
2022-10-22T05:26:31.499Z,22.23
2022-10-22T05:29:03.810Z,23.40
2022-10-22T05:31:36.451Z,21.35
2022-10-22T05:34:08.835Z,20.95
2022-10-22T05:36:42.173Z,36.10
2022-10-22T05:39:14.556Z,24.40
2022-10-22T05:41:46.963Z,30.63
2022-10-22T05:44:19.504Z,50.65
2022-10-22T05:46:51.834Z,46.08
2022-10-22T05:49:24.244Z,44.95
2022-10-22T05:51:57.214Z,36.22
2022-10-22T05:54:29.483Z,34.88
2022-10-22T05:57:01.782Z,20.95
2022-10-22T05:59:34.158Z,17.63
2022-10-22T06:02:08.644Z,27.67
2022-10-22T06:04:40.982Z,22.85
2022-10-22T06:07:15.665Z,32.10
2022-10-22T06:09:49.574Z,31.27
2022-10-22T06:12:21.876Z,20.40
2022-10-22T06:14:54.321Z,18.48
2022-10-22T06:17:26.635Z,16.90
2022-10-22T06:19:59.010Z,19.42
2022-10-22T06:22:32.035Z,17.67
2022-10-22T06:25:05.552Z,16.77
2022-10-22T06:27:37.827Z,28.23
2022-10-22T06:30:10.960Z,17.85
2022-10-22T06:32:43.367Z,18.30
2022-10-22T06:35:15.920Z,18.55
2022-10-22T06:37:48.963Z,21.92
2022-10-22T06:40:21.458Z,17.58
2022-10-22T06:42:53.751Z,14.27
2022-10-22T06:45:26.511Z,23.23
2022-10-22T06:47:58.811Z,21.58
2022-10-22T06:50:31.413Z,22.45
2022-10-22T06:53:04.403Z,16.83
2022-10-22T06:55:36.788Z,19.92
2022-10-22T06:58:09.097Z,17.20
2022-10-22T07:00:41.456Z,14.73
2022-10-22T07:03:14.521Z,18.15
2022-10-22T07:05:46.826Z,22.45
2022-10-22T07:08:19.811Z,19.27
2022-10-22T07:10:52.148Z,20.88
2022-10-22T07:13:24.487Z,21.33
2022-10-22T07:15:56.810Z,20.70
2022-10-22T07:18:30.025Z,18.67
2022-10-22T07:21:02.819Z,16.17
2022-10-22T07:23:36.218Z,14.43
2022-10-22T07:26:09.004Z,14.75
2022-10-22T07:28:41.427Z,16.75
2022-10-22T07:31:15.544Z,16.42
2022-10-22T07:33:47.890Z,13.88
2022-10-22T07:36:20.191Z,14.27
2022-10-22T07:38:56.693Z,16.95
2022-10-22T07:41:31.022Z,13.40
2022-10-22T07:44:03.591Z,14.18
2022-10-22T07:46:35.916Z,12.82
2022-10-22T07:49:08.250Z,13.73
2022-10-22T07:51:40.582Z,9.50
2022-10-22T07:54:13.534Z,11.27
2022-10-22T07:56:45.921Z,9.73
2022-10-22T07:59:18.249Z,13.75
2022-10-22T08:01:50.563Z,10.30
2022-10-22T08:04:22.855Z,12.82
2022-10-22T08:06:55.192Z,12.55
2022-10-22T08:09:28.245Z,10.30
2022-10-22T08:12:00.553Z,10.38
2022-10-22T08:14:32.899Z,11.27
2022-10-22T08:17:05.239Z,8.88
2022-10-22T08:19:37.581Z,8.75
2022-10-22T08:22:10.010Z,10.82
2022-10-22T08:24:43.009Z,11.18
2022-10-22T08:27:15.318Z,9.68
2022-10-22T08:29:47.635Z,10.60
2022-10-22T08:32:20.139Z,11.48
2022-10-22T08:34:52.469Z,16.00
2022-10-22T08:37:25.258Z,8.35
2022-10-22T08:39:58.287Z,7.43
2022-10-22T08:43:11.013Z,8.80
2022-10-22T08:45:58.673Z,8.10
2022-10-22T08:48:42.942Z,9.90
2022-10-22T08:51:18.692Z,10.07
2022-10-22T08:54:13.353Z,7.68
2022-10-22T08:56:59.780Z,11.27
2022-10-22T08:59:41.304Z,8.95
2022-10-22T09:02:28.241Z,8.10
2022-10-22T09:05:15.035Z,8.93
2022-10-22T09:07:49.522Z,7.47
2022-10-22T09:10:26.537Z,15.27
2022-10-22T09:12:59.590Z,13.60
2022-10-22T09:15:31.950Z,7.50
2022-10-22T09:18:19.206Z,10.80
2022-10-22T09:20:56.132Z,7.93
2022-10-22T09:23:37.614Z,10.48
2022-10-22T09:26:14.354Z,7.53
2022-10-22T09:28:51.379Z,8.82
2022-10-22T09:31:30.188Z,12.35
2022-10-22T09:34:06.816Z,10.45
2022-10-22T09:36:39.155Z,12.75
2022-10-22T09:39:26.612Z,11.45
2022-10-22T09:41:58.990Z,10.75
2022-10-22T09:44:34.941Z,9.93
2022-10-22T09:47:43.287Z,10.02
2022-10-22T09:50:29.478Z,10.63
2022-10-22T09:53:12.432Z,10.82
2022-10-22T09:55:49.399Z,9.30
2022-10-22T09:58:21.745Z,7.60
2022-10-22T10:00:57.580Z,7.85
2022-10-22T10:03:32.753Z,8.90
2022-10-22T10:06:06.614Z,7.75
2022-10-22T10:08:39.040Z,6.88
2022-10-22T10:11:17.861Z,9.13
2022-10-22T10:14:02.528Z,9.32
2022-10-22T10:16:46.468Z,7.05
2022-10-22T10:19:30.236Z,7.55
2022-10-22T10:22:12.223Z,9.38
2022-10-22T10:25:09.881Z,7.45
2022-10-22T10:27:47.507Z,7.20
2022-10-22T10:30:23.271Z,10.85
2022-10-22T10:33:10.856Z,6.80
2022-10-22T10:35:54.383Z,8.45
2022-10-22T10:38:42.696Z,6.80
2022-10-22T10:41:23.004Z,6.07
2022-10-22T10:44:26.455Z,9.32
2022-10-22T10:47:08.826Z,6.22
2022-10-22T10:49:43.214Z,7.75
2022-10-22T10:52:27.825Z,9.10
2022-10-22T10:55:13.151Z,4.88
2022-10-22T10:57:56.108Z,7.13
2022-10-22T11:00:34.527Z,7.97
2022-10-22T11:03:39.045Z,6.07
2022-10-22T11:06:15.791Z,7.57
2022-10-22T11:08:56.812Z,6.82
2022-10-22T11:11:34.608Z,8.27
2022-10-22T11:14:14.853Z,5.75
2022-10-22T11:16:55.139Z,6.13
2022-10-22T11:19:50.254Z,7.35
2022-10-22T11:22:29.436Z,6.28
2022-10-22T11:25:14.530Z,5.10
2022-10-22T11:27:51.591Z,5.00
2022-10-22T11:30:28.735Z,6.45
2022-10-22T11:33:05.449Z,7.63
2022-10-22T11:35:44.707Z,5.57
2022-10-22T11:40:58.860Z,6.05
2022-10-22T11:43:34.550Z,6.00
2022-10-22T11:46:26.975Z,9.25
2022-10-22T11:49:05.914Z,9.52
2022-10-22T11:51:41.115Z,5.60
2022-10-22T11:54:41.631Z,6.97
2022-10-22T11:57:21.037Z,5.40
2022-10-22T11:59:57.517Z,4.68
2022-10-22T12:02:39.514Z,4.30
2022-10-22T12:05:43.004Z,4.47
2022-10-22T12:08:22.683Z,7.70
2022-10-22T12:11:04.823Z,5.32
2022-10-22T12:13:57.894Z,5.55
2022-10-22T12:16:55.308Z,8.93
2022-10-22T12:19:31.445Z,6.35
2022-10-22T12:22:14.795Z,5.28
2022-10-22T12:24:49.101Z,6.50
2022-10-22T12:27:24.300Z,6.90
2022-10-22T12:29:58.386Z,4.63
2022-10-22T12:32:34.471Z,8.35
2022-10-22T12:35:09.170Z,8.52
2022-10-22T12:37:41.842Z,6.68
2022-10-22T12:40:20.017Z,8.48
2022-10-22T12:42:54.808Z,11.20
2022-10-22T12:45:29.251Z,6.43
2022-10-22T12:48:05.118Z,6.57
2022-10-22T12:50:42.122Z,6.63
2022-10-22T12:53:17.091Z,12.18
2022-10-22T12:55:51.799Z,8.07
2022-10-22T12:58:29.273Z,5.22
2022-10-22T13:01:01.652Z,7.68
2022-10-22T13:03:37.803Z,6.25
2022-10-22T13:06:23.116Z,10.15
2022-10-22T13:09:02.180Z,6.38
2022-10-22T13:11:39.197Z,8.38
2022-10-22T13:14:20.607Z,5.40
2022-10-22T13:17:11.477Z,5.97
2022-10-22T13:19:48.002Z,5.78
2022-10-22T13:22:34.456Z,9.35
2022-10-22T13:25:22.212Z,4.53
2022-10-22T13:27:57.082Z,4.82
2022-10-22T13:30:32.357Z,6.75
2022-10-22T13:33:06.740Z,7.65
2022-10-22T13:35:39.182Z,5.70
2022-10-22T13:38:15.256Z,6.50
2022-10-22T13:40:47.902Z,10.43
2022-10-22T13:43:20.703Z,6.78
2022-10-22T13:45:58.118Z,6.15
2022-10-22T13:48:30.591Z,8.52
2022-10-22T13:51:04.683Z,8.93
2022-10-22T13:53:37.006Z,6.00
2022-10-22T13:56:13.060Z,7.75
2022-10-22T13:58:47.136Z,8.18
2022-10-22T14:01:23.459Z,6.07
2022-10-22T14:03:58.594Z,7.43
2022-10-22T14:06:32.166Z,13.80
2022-10-22T14:09:08.112Z,5.60
2022-10-22T14:11:40.761Z,6.18
2022-10-22T14:14:16.411Z,5.93
2022-10-22T14:16:49.448Z,10.73
2022-10-22T14:19:21.823Z,8.55
2022-10-22T14:21:54.124Z,9.48
2022-10-22T14:24:26.438Z,6.82
2022-10-22T14:26:58.765Z,9.23
2022-10-22T14:29:31.094Z,6.28
2022-10-22T14:32:06.171Z,8.63
2022-10-22T14:34:38.528Z,6.45
2022-10-22T14:37:16.620Z,8.45
2022-10-22T14:39:53.532Z,11.13
2022-10-22T14:42:26.373Z,9.02
2022-10-22T14:44:58.691Z,9.40
2022-10-22T14:47:31.655Z,6.65
2022-10-22T14:50:04.686Z,8.23
2022-10-22T14:52:37.631Z,10.25
2022-10-22T14:55:10.912Z,8.80
2022-10-22T14:57:43.735Z,7.80
2022-10-22T15:00:17.903Z,11.18
2022-10-22T15:02:50.887Z,12.40
2022-10-22T15:05:23.177Z,10.45
2022-10-22T15:07:55.558Z,11.77
2022-10-22T15:10:27.979Z,10.10
2022-10-22T15:13:00.293Z,14.30
2022-10-22T15:15:36.641Z,11.80
2022-10-22T15:18:40.495Z,12.05
2022-10-22T15:21:15.383Z,12.35
2022-10-22T15:23:47.942Z,13.65
2022-10-22T15:26:20.270Z,13.07
2022-10-22T15:28:52.535Z,10.88
2022-10-22T15:31:43.868Z,10.40
2022-10-22T15:34:22.506Z,7.85
2022-10-22T15:36:56.116Z,10.70
2022-10-22T15:39:29.150Z,6.97
2022-10-22T15:42:01.542Z,19.65
2022-10-22T15:44:34.087Z,10.82
2022-10-22T15:47:06.801Z,14.68
2022-10-22T15:49:41.122Z,12.88
2022-10-22T15:52:13.442Z,9.77
2022-10-22T15:54:45.710Z,10.13
2022-10-22T15:57:18.042Z,8.88
2022-10-22T15:59:51.257Z,9.55
2022-10-22T16:02:23.579Z,8.77
2022-10-22T16:04:58.051Z,10.82
2022-10-22T16:07:30.670Z,15.23
2022-10-22T16:10:03.732Z,12.68
2022-10-22T16:12:36.434Z,113.63
2022-10-22T16:15:10.626Z,51.10
2022-10-22T16:17:42.974Z,33.75
2022-10-22T16:20:16.201Z,28.70
2022-10-22T16:22:50.044Z,20.30
2022-10-22T16:25:22.431Z,13.05
2022-10-22T16:27:54.805Z,17.38
2022-10-22T16:30:27.234Z,23.55
2022-10-22T16:33:00.880Z,30.58
2022-10-22T16:35:40.131Z,26.05
2022-10-22T16:38:12.534Z,31.15
2022-10-22T16:40:45.559Z,35.83
2022-10-22T16:43:18.099Z,26.05
2022-10-22T16:45:50.538Z,27.52
2022-10-22T16:48:22.903Z,34.47
2022-10-22T16:50:55.941Z,38.85
2022-10-22T16:53:28.361Z,37.70
2022-10-22T16:56:00.782Z,37.42
2022-10-22T16:58:33.186Z,26.65
2022-10-22T17:01:07.010Z,28.02
2022-10-22T17:03:39.936Z,23.73
2022-10-22T17:06:13.861Z,19.27
2022-10-22T17:08:47.137Z,18.38
2022-10-22T17:11:21.702Z,26.08
2022-10-22T17:13:54.478Z,29.52
2022-10-22T17:16:27.322Z,19.67
2022-10-22T17:19:02.402Z,37.70
2022-10-22T17:21:35.374Z,26.77
2022-10-22T17:24:07.926Z,19.77
2022-10-22T17:26:40.394Z,17.92
2022-10-22T17:29:13.475Z,31.92
2022-10-22T17:31:45.846Z,31.80
2022-10-22T17:34:18.226Z,23.15
2022-10-22T17:36:51.250Z,27.20
2022-10-22T17:39:23.574Z,42.33
2022-10-22T17:41:55.923Z,34.80
2022-10-22T17:44:28.361Z,38.55
2022-10-22T17:47:01.064Z,48.40
2022-10-22T17:49:33.391Z,53.75
2022-10-22T17:52:06.702Z,50.78
2022-10-22T17:54:39.111Z,31.77
2022-10-22T17:57:12.993Z,24.30
2022-10-22T17:59:45.311Z,41.42
2022-10-22T18:02:18.060Z,36.35
2022-10-22T18:04:51.520Z,20.17
2022-10-22T18:07:24.534Z,22.90
2022-10-22T18:09:56.884Z,44.65
2022-10-22T18:12:29.262Z,33.38
2022-10-22T18:15:01.619Z,20.98
2022-10-22T18:17:35.921Z,18.23
2022-10-22T18:20:12.503Z,24.17
2022-10-22T18:22:45.523Z,20.00
2022-10-22T18:25:18.505Z,14.43
2022-10-22T18:27:50.894Z,13.50
2022-10-22T18:30:23.233Z,13.82
2022-10-22T18:32:55.547Z,18.10
2022-10-22T18:35:31.652Z,51.70
2022-10-22T18:38:04.637Z,12.20
2022-10-22T18:40:43.790Z,11.55
2022-10-22T18:43:16.974Z,9.10
2022-10-22T18:45:49.378Z,8.90
2022-10-22T18:48:22.295Z,7.70
2022-10-22T18:51:01.942Z,6.13
2022-10-22T18:53:36.127Z,11.27
2022-10-22T18:56:10.210Z,13.00
2022-10-22T18:58:45.498Z,19.67
2022-10-22T19:01:20.486Z,14.00
2022-10-22T19:03:52.954Z,11.05
2022-10-22T19:06:34.320Z,12.57
2022-10-22T19:09:09.022Z,8.85
2022-10-22T19:11:42.588Z,22.38
2022-10-22T19:14:18.525Z,13.68
2022-10-22T19:16:50.894Z,9.95
2022-10-22T19:19:23.744Z,9.90
2022-10-22T19:21:58.721Z,8.40
2022-10-22T19:24:31.885Z,13.38
2022-10-22T19:27:04.365Z,9.10
2022-10-22T19:29:36.736Z,8.25
2022-10-22T19:32:09.187Z,12.25
2022-10-22T19:34:41.570Z,17.35
2022-10-22T19:37:14.483Z,11.85
2022-10-22T19:39:49.586Z,8.55
2022-10-22T19:42:21.972Z,6.97
2022-10-22T19:44:54.423Z,8.75
2022-10-22T19:47:27.390Z,17.73
2022-10-22T19:49:59.732Z,12.43
2022-10-22T19:52:33.290Z,11.02
2022-10-22T19:55:06.701Z,14.00
2022-10-22T19:57:39.320Z,12.00
2022-10-22T20:00:12.574Z,10.70
2022-10-22T20:02:44.868Z,10.88
2022-10-22T20:05:17.397Z,9.25
2022-10-22T20:07:49.701Z,16.52
2022-10-22T20:10:23.477Z,31.40
2022-10-22T20:12:55.883Z,30.95
2022-10-22T20:15:28.204Z,22.30
2022-10-22T20:18:00.741Z,17.75
2022-10-22T20:20:33.101Z,16.63
2022-10-22T20:23:07.884Z,20.13
2022-10-22T20:25:42.849Z,18.13
2022-10-22T20:28:15.921Z,13.32
2022-10-22T20:30:48.290Z,13.05
2022-10-22T20:33:20.688Z,12.85
2022-10-22T20:35:59.672Z,8.80
2022-10-22T20:38:32.165Z,9.18
2022-10-22T20:41:07.486Z,9.05
2022-10-22T20:43:39.872Z,7.18
2022-10-22T20:46:17.339Z,9.63
2022-10-22T20:48:51.427Z,10.35
2022-10-22T20:51:23.864Z,10.68
2022-10-22T20:53:56.237Z,12.18
2022-10-22T20:56:29.489Z,8.48
2022-10-22T20:59:05.094Z,10.70
2022-10-22T21:01:39.443Z,7.88
2022-10-22T21:04:12.280Z,12.25
2022-10-22T21:06:44.611Z,10.93
2022-10-22T21:09:17.022Z,9.68
2022-10-22T21:14:34.110Z,9.23
2022-10-22T21:17:07.482Z,10.60
2022-10-22T21:19:39.795Z,11.80
2022-10-22T21:22:12.115Z,8.88
2022-10-22T21:24:44.502Z,13.73
2022-10-22T21:27:17.503Z,12.57
2022-10-22T21:29:49.896Z,11.32
2022-10-22T21:32:22.406Z,12.07
2022-10-22T21:34:54.879Z,23.33
2022-10-22T21:37:29.251Z,23.67
2022-10-22T21:40:03.067Z,17.33
2022-10-22T21:42:36.092Z,13.30
2022-10-22T21:45:12.420Z,12.40
2022-10-22T21:47:47.190Z,13.43
2022-10-22T21:50:19.683Z,11.02
2022-10-22T21:52:52.062Z,8.75
2022-10-22T21:55:24.428Z,9.90
2022-10-22T21:57:57.451Z,11.18
2022-10-22T22:00:29.820Z,14.55
2022-10-22T22:03:02.228Z,13.57
2022-10-22T22:05:34.553Z,11.55
2022-10-22T22:08:06.884Z,9.13
2022-10-22T22:10:39.371Z,11.10
2022-10-22T22:13:12.352Z,8.65
2022-10-22T22:15:44.743Z,9.45
2022-10-22T22:18:17.115Z,8.57
2022-10-22T22:20:49.486Z,8.32
2022-10-22T22:23:21.858Z,9.07
2022-10-22T22:25:58.541Z,13.35
2022-10-22T22:28:32.719Z,8.65
2022-10-22T22:31:14.730Z,7.57
2022-10-22T22:33:47.709Z,7.70
2022-10-22T22:36:20.065Z,10.25
2022-10-22T22:38:54.117Z,10.88
2022-10-22T22:41:26.531Z,9.85
2022-10-22T22:43:59.641Z,9.15
2022-10-22T22:46:31.964Z,8.32
2022-10-22T22:49:04.787Z,5.82
2022-10-22T22:51:37.167Z,8.25
2022-10-22T22:54:10.054Z,8.82
2022-10-22T22:56:42.427Z,12.02
2022-10-22T22:59:15.474Z,14.70
2022-10-22T23:01:49.266Z,10.65
2022-10-22T23:04:23.070Z,10.18
2022-10-22T23:06:55.445Z,10.90
2022-10-22T23:09:27.758Z,14.35
2022-10-22T23:12:00.153Z,9.68
2022-10-22T23:14:33.170Z,8.82
2022-10-22T23:17:05.627Z,7.63
2022-10-22T23:19:37.970Z,7.75
2022-10-22T23:22:10.419Z,11.30
2022-10-22T23:24:42.719Z,8.15
2022-10-22T23:27:15.114Z,12.90
2022-10-22T23:29:48.115Z,10.73
2022-10-22T23:32:20.422Z,16.60
2022-10-22T23:34:52.858Z,8.27
2022-10-22T23:37:25.278Z,7.93
2022-10-22T23:39:57.606Z,9.65
2022-10-22T23:42:30.001Z,14.70
2022-10-22T23:45:03.303Z,21.73
2022-10-22T23:47:35.918Z,10.88
2022-10-22T23:50:08.264Z,8.20
2022-10-22T23:52:40.911Z,11.27
2022-10-22T23:55:13.447Z,14.35
2022-10-22T23:57:45.846Z,22.98
